Hauptseite
METAR-TAF:

METAR-TAF

Flughäfen :

Rota, Marianen, Vereinigte Staaten

Breite: 14-11N, Länge: 145-15E, Höhe: 185 m

Beobachtung

Neuester Wetterbericht von vor 5 Stunden und 51 Minuten, um 07:50 UTC
Wind 10 kt aus Ost
Temperatur 28°C
Luftfeuchtigkeit 79%
Luftdruck 1010 hPa
Sichtweite: 11.3 km
Aufgelockert bewölkt in der Höhe von 1600 ft
Aufgelockert bewölkt in der Höhe von 12000 ft

METAR: PGRO 250750Z 08010KT 7SM SCT016 SCT120 28/24 A2983 RMK LAST

Zeit: 23:41 (13:41 UTC)

Prognose

Neuester Wetterbericht von vor 8 Stunden und 10 Minuten, um 05:31 UTC
Gültige Prognose vom 25 um 06 UTC bis 26 um 06 UTC
Wind 14 kt aus Ost
Sichtweite: 10 km
Leicht bewölkt in der Höhe von 1600 ft

TAF: PGRO 250531Z 2506/2606 08014KT P6SM FEW016

Wetterbeobachtungen und Prognosen von mehr als 4000 Flughäfen (METAR und TAF Bericht).

Die verfügbaren Stationen werden durch gelbe und rote Markierungen auf der Karte dargestellt.

Führen Sie die Maus auf sie, um den Namen der Station zu sehen.

Darauf klicken, um die Beobachtung von Wetterbeobachtungen und Prognosen zu sehen.

Um die Karte zu ändern : klicken Sie auf den grünen Tasten mit einem schwarzen Kreuz Zum Vergrößern, auf den grünen Button mit einem Gedankenstrich zu verkleinern, oder auf die grünen Pfeile für benachbarte Karten.


METAR-TAF: